sensor_id;sensor_type;location;lat;lon;timestamp;P1;durP1;ratioP1;P2;durP2;ratioP2
17380;SDS011;8808;52.478;13.378;2023-08-17T00:00:57;5.20;;;2.03;;
17380;SDS011;8808;52.478;13.378;2023-08-17T00:03:25;7.80;;;2.10;;
17380;SDS011;8808;52.478;13.378;2023-08-17T00:05:52;6.43;;;2.08;;
17380;SDS011;8808;52.478;13.378;2023-08-17T00:08:19;3.80;;;1.83;;
17380;SDS011;8808;52.478;13.378;2023-08-17T00:10:46;5.50;;;1.83;;
17380;SDS011;8808;52.478;13.378;2023-08-17T00:13:13;3.65;;;2.05;;
17380;SDS011;8808;52.478;13.378;2023-08-17T00:15:40;4.07;;;2.22;;
17380;SDS011;8808;52.478;13.378;2023-08-17T00:18:10;5.40;;;2.30;;
17380;SDS011;8808;52.478;13.378;2023-08-17T00:20:38;4.55;;;2.17;;
17380;SDS011;8808;52.478;13.378;2023-08-17T00:23:05;4.70;;;2.30;;
17380;SDS011;8808;52.478;13.378;2023-08-17T00:25:32;4.30;;;2.38;;
17380;SDS011;8808;52.478;13.378;2023-08-17T00:27:59;4.57;;;2.13;;
17380;SDS011;8808;52.478;13.378;2023-08-17T00:30:26;6.97;;;2.35;;
17380;SDS011;8808;52.478;13.378;2023-08-17T00:32:53;6.32;;;2.80;;
17380;SDS011;8808;52.478;13.378;2023-08-17T00:35:20;3.05;;;2.08;;
17380;SDS011;8808;52.478;13.378;2023-08-17T00:37:48;3.30;;;2.08;;
17380;SDS011;8808;52.478;13.378;2023-08-17T00:40:15;7.18;;;2.10;;
17380;SDS011;8808;52.478;13.378;2023-08-17T00:42:42;3.30;;;1.70;;
17380;SDS011;8808;52.478;13.378;2023-08-17T00:45:09;6.60;;;2.22;;
17380;SDS011;8808;52.478;13.378;2023-08-17T00:47:36;8.27;;;2.47;;
17380;SDS011;8808;52.478;13.378;2023-08-17T00:50:04;3.97;;;2.45;;
17380;SDS011;8808;52.478;13.378;2023-08-17T00:52:32;2.67;;;1.90;;
17380;SDS011;8808;52.478;13.378;2023-08-17T00:55:02;6.40;;;2.45;;
17380;SDS011;8808;52.478;13.378;2023-08-17T00:57:30;3.85;;;2.17;;
17380;SDS011;8808;52.478;13.378;2023-08-17T00:59:58;6.28;;;2.35;;
17380;SDS011;8808;52.478;13.378;2023-08-17T01:05:26;6.25;;;2.20;;
17380;SDS011;8808;52.478;13.378;2023-08-17T01:07:53;7.28;;;2.53;;
17380;SDS011;8808;52.478;13.378;2023-08-17T01:10:22;4.13;;;2.13;;
17380;SDS011;8808;52.478;13.378;2023-08-17T01:12:51;3.28;;;2.28;;
17380;SDS011;8808;52.478;13.378;2023-08-17T01:15:27;6.53;;;2.33;;
17380;SDS011;8808;52.478;13.378;2023-08-17T01:18:00;2.85;;;2.20;;
17380;SDS011;8808;52.478;13.378;2023-08-17T01:20:37;3.72;;;2.22;;
17380;SDS011;8808;52.478;13.378;2023-08-17T01:23:05;7.47;;;2.55;;
17380;SDS011;8808;52.478;13.378;2023-08-17T01:25:33;4.65;;;2.50;;
17380;SDS011;8808;52.478;13.378;2023-08-17T01:28:02;7.45;;;2.38;;
17380;SDS011;8808;52.478;13.378;2023-08-17T01:30:30;4.10;;;2.28;;
17380;SDS011;8808;52.478;13.378;2023-08-17T01:33:06;4.63;;;2.60;;
17380;SDS011;8808;52.478;13.378;2023-08-17T01:35:37;5.43;;;2.20;;
17380;SDS011;8808;52.478;13.378;2023-08-17T01:38:09;4.68;;;2.60;;
17380;SDS011;8808;52.478;13.378;2023-08-17T01:40:40;2.83;;;2.13;;
17380;SDS011;8808;52.478;13.378;2023-08-17T01:43:08;3.15;;;1.98;;
17380;SDS011;8808;52.478;13.378;2023-08-17T01:45:37;5.57;;;1.98;;
17380;SDS011;8808;52.478;13.378;2023-08-17T01:48:04;2.88;;;2.20;;
17380;SDS011;8808;52.478;13.378;2023-08-17T01:50:32;4.05;;;2.13;;
17380;SDS011;8808;52.478;13.378;2023-08-17T01:52:59;4.97;;;2.25;;
17380;SDS011;8808;52.478;13.378;2023-08-17T01:55:27;4.13;;;2.20;;
17380;SDS011;8808;52.478;13.378;2023-08-17T01:57:54;7.57;;;2.33;;
17380;SDS011;8808;52.478;13.378;2023-08-17T02:00:21;6.43;;;2.20;;
17380;SDS011;8808;52.478;13.378;2023-08-17T02:02:48;2.83;;;1.80;;
17380;SDS011;8808;52.478;13.378;2023-08-17T02:05:15;7.03;;;2.07;;
17380;SDS011;8808;52.478;13.378;2023-08-17T02:07:42;4.53;;;1.95;;
17380;SDS011;8808;52.478;13.378;2023-08-17T02:10:09;7.07;;;2.38;;
17380;SDS011;8808;52.478;13.378;2023-08-17T02:12:38;6.05;;;2.63;;
17380;SDS011;8808;52.478;13.378;2023-08-17T02:15:06;6.28;;;2.67;;
17380;SDS011;8808;52.478;13.378;2023-08-17T02:17:33;11.35;;;2.78;;
17380;SDS011;8808;52.478;13.378;2023-08-17T02:20:00;5.00;;;2.22;;
17380;SDS011;8808;52.478;13.378;2023-08-17T02:22:28;3.10;;;2.13;;
17380;SDS011;8808;52.478;13.378;2023-08-17T02:24:55;3.35;;;2.10;;
17380;SDS011;8808;52.478;13.378;2023-08-17T02:27:22;5.87;;;2.20;;
17380;SDS011;8808;52.478;13.378;2023-08-17T02:29:50;6.28;;;2.15;;
17380;SDS011;8808;52.478;13.378;2023-08-17T02:32:17;5.20;;;2.25;;
17380;SDS011;8808;52.478;13.378;2023-08-17T02:34:44;4.15;;;2.25;;
17380;SDS011;8808;52.478;13.378;2023-08-17T02:37:11;3.22;;;2.30;;
17380;SDS011;8808;52.478;13.378;2023-08-17T02:39:38;3.40;;;2.00;;
17380;SDS011;8808;52.478;13.378;2023-08-17T02:42:05;4.23;;;2.30;;
17380;SDS011;8808;52.478;13.378;2023-08-17T02:44:32;3.73;;;2.50;;
17380;SDS011;8808;52.478;13.378;2023-08-17T02:47:01;8.48;;;2.55;;
17380;SDS011;8808;52.478;13.378;2023-08-17T02:49:28;3.83;;;2.10;;
17380;SDS011;8808;52.478;13.378;2023-08-17T02:51:55;6.23;;;2.23;;
17380;SDS011;8808;52.478;13.378;2023-08-17T02:54:21;4.17;;;2.23;;
17380;SDS011;8808;52.478;13.378;2023-08-17T02:56:48;5.10;;;2.40;;
17380;SDS011;8808;52.478;13.378;2023-08-17T02:59:15;5.73;;;1.97;;
17380;SDS011;8808;52.478;13.378;2023-08-17T03:01:43;5.43;;;2.33;;
17380;SDS011;8808;52.478;13.378;2023-08-17T03:04:12;8.30;;;2.35;;
17380;SDS011;8808;52.478;13.378;2023-08-17T03:06:39;3.30;;;1.92;;
17380;SDS011;8808;52.478;13.378;2023-08-17T03:09:06;2.93;;;2.13;;
17380;SDS011;8808;52.478;13.378;2023-08-17T03:11:33;6.97;;;2.30;;
17380;SDS011;8808;52.478;13.378;2023-08-17T03:14:00;3.45;;;2.10;;
17380;SDS011;8808;52.478;13.378;2023-08-17T03:16:28;4.60;;;2.03;;
17380;SDS011;8808;52.478;13.378;2023-08-17T03:18:55;5.17;;;2.07;;
17380;SDS011;8808;52.478;13.378;2023-08-17T03:21:24;3.10;;;1.92;;
17380;SDS011;8808;52.478;13.378;2023-08-17T03:23:51;4.57;;;1.98;;
17380;SDS011;8808;52.478;13.378;2023-08-17T03:26:18;3.03;;;2.03;;
17380;SDS011;8808;52.478;13.378;2023-08-17T03:28:45;4.13;;;2.20;;
17380;SDS011;8808;52.478;13.378;2023-08-17T03:31:12;8.30;;;2.38;;
17380;SDS011;8808;52.478;13.378;2023-08-17T03:33:39;2.87;;;2.10;;
17380;SDS011;8808;52.478;13.378;2023-08-17T03:36:06;5.63;;;2.10;;
17380;SDS011;8808;52.478;13.378;2023-08-17T03:38:35;5.40;;;1.90;;
17380;SDS011;8808;52.478;13.378;2023-08-17T03:41:04;4.60;;;1.77;;
17380;SDS011;8808;52.478;13.378;2023-08-17T03:43:31;3.83;;;2.28;;
17380;SDS011;8808;52.478;13.378;2023-08-17T03:45:58;5.70;;;2.20;;
17380;SDS011;8808;52.478;13.378;2023-08-17T03:48:25;6.00;;;2.27;;
17380;SDS011;8808;52.478;13.378;2023-08-17T03:50:52;6.20;;;2.43;;
17380;SDS011;8808;52.478;13.378;2023-08-17T03:53:20;9.07;;;2.28;;
17380;SDS011;8808;52.478;13.378;2023-08-17T03:55:48;6.30;;;2.20;;
17380;SDS011;8808;52.478;13.378;2023-08-17T03:58:17;3.80;;;2.30;;
17380;SDS011;8808;52.478;13.378;2023-08-17T04:00:48;4.43;;;1.90;;
17380;SDS011;8808;52.478;13.378;2023-08-17T04:03:16;4.23;;;2.40;;
17380;SDS011;8808;52.478;13.378;2023-08-17T04:05:44;3.63;;;2.17;;
17380;SDS011;8808;52.478;13.378;2023-08-17T04:08:11;6.17;;;2.30;;
17380;SDS011;8808;52.478;13.378;2023-08-17T04:10:38;4.43;;;2.03;;
17380;SDS011;8808;52.478;13.378;2023-08-17T04:13:07;3.88;;;2.03;;
17380;SDS011;8808;52.478;13.378;2023-08-17T04:15:34;6.63;;;2.10;;
17380;SDS011;8808;52.478;13.378;2023-08-17T04:18:01;3.57;;;2.10;;
17380;SDS011;8808;52.478;13.378;2023-08-17T04:20:28;8.93;;;2.07;;
17380;SDS011;8808;52.478;13.378;2023-08-17T04:22:55;3.75;;;2.10;;
17380;SDS011;8808;52.478;13.378;2023-08-17T04:25:22;4.75;;;1.85;;
17380;SDS011;8808;52.478;13.378;2023-08-17T04:27:49;4.63;;;2.10;;
17380;SDS011;8808;52.478;13.378;2023-08-17T04:30:17;4.88;;;2.00;;
17380;SDS011;8808;52.478;13.378;2023-08-17T04:32:44;4.33;;;2.03;;
17380;SDS011;8808;52.478;13.378;2023-08-17T04:35:15;4.32;;;2.10;;
17380;SDS011;8808;52.478;13.378;2023-08-17T04:37:42;3.07;;;1.80;;
17380;SDS011;8808;52.478;13.378;2023-08-17T04:40:09;5.72;;;2.20;;
17380;SDS011;8808;52.478;13.378;2023-08-17T04:42:37;3.87;;;2.10;;
17380;SDS011;8808;52.478;13.378;2023-08-17T04:45:04;4.83;;;1.73;;
17380;SDS011;8808;52.478;13.378;2023-08-17T04:47:34;4.15;;;1.83;;
17380;SDS011;8808;52.478;13.378;2023-08-17T04:50:00;5.30;;;2.13;;
17380;SDS011;8808;52.478;13.378;2023-08-17T04:52:27;7.60;;;2.07;;
17380;SDS011;8808;52.478;13.378;2023-08-17T04:54:54;3.05;;;1.95;;
17380;SDS011;8808;52.478;13.378;2023-08-17T04:57:21;4.77;;;2.03;;
17380;SDS011;8808;52.478;13.378;2023-08-17T04:59:49;3.80;;;1.80;;
17380;SDS011;8808;52.478;13.378;2023-08-17T05:02:17;2.78;;;1.77;;
17380;SDS011;8808;52.478;13.378;2023-08-17T05:04:45;3.03;;;1.90;;
17380;SDS011;8808;52.478;13.378;2023-08-17T05:07:12;4.47;;;1.70;;
17380;SDS011;8808;52.478;13.378;2023-08-17T05:09:39;6.00;;;1.65;;
17380;SDS011;8808;52.478;13.378;2023-08-17T05:12:06;4.00;;;2.00;;
17380;SDS011;8808;52.478;13.378;2023-08-17T05:14:34;8.70;;;2.20;;
17380;SDS011;8808;52.478;13.378;2023-08-17T05:17:01;2.42;;;1.63;;
17380;SDS011;8808;52.478;13.378;2023-08-17T05:19:28;6.25;;;1.92;;
17380;SDS011;8808;52.478;13.378;2023-08-17T05:21:57;5.18;;;1.88;;
17380;SDS011;8808;52.478;13.378;2023-08-17T05:24:24;2.88;;;1.60;;
17380;SDS011;8808;52.478;13.378;2023-08-17T05:26:51;2.70;;;1.67;;
17380;SDS011;8808;52.478;13.378;2023-08-17T05:29:18;4.03;;;2.10;;
17380;SDS011;8808;52.478;13.378;2023-08-17T05:31:45;4.90;;;1.70;;
17380;SDS011;8808;52.478;13.378;2023-08-17T05:34:12;3.22;;;1.80;;
17380;SDS011;8808;52.478;13.378;2023-08-17T05:36:38;5.55;;;1.80;;
17380;SDS011;8808;52.478;13.378;2023-08-17T05:39:07;4.38;;;1.90;;
17380;SDS011;8808;52.478;13.378;2023-08-17T05:41:34;3.58;;;1.73;;
17380;SDS011;8808;52.478;13.378;2023-08-17T05:44:01;3.35;;;1.90;;
17380;SDS011;8808;52.478;13.378;2023-08-17T05:46:28;4.68;;;1.75;;
17380;SDS011;8808;52.478;13.378;2023-08-17T05:48:55;5.47;;;2.00;;
17380;SDS011;8808;52.478;13.378;2023-08-17T05:51:23;10.13;;;2.28;;
17380;SDS011;8808;52.478;13.378;2023-08-17T05:53:50;2.55;;;1.67;;
17380;SDS011;8808;52.478;13.378;2023-08-17T05:56:19;2.55;;;1.73;;
17380;SDS011;8808;52.478;13.378;2023-08-17T05:58:45;4.38;;;1.88;;
17380;SDS011;8808;52.478;13.378;2023-08-17T06:01:13;4.22;;;1.65;;
17380;SDS011;8808;52.478;13.378;2023-08-17T06:03:40;5.03;;;2.00;;
17380;SDS011;8808;52.478;13.378;2023-08-17T06:06:09;6.90;;;1.90;;
17380;SDS011;8808;52.478;13.378;2023-08-17T06:08:36;3.75;;;2.00;;
17380;SDS011;8808;52.478;13.378;2023-08-17T06:11:03;4.53;;;1.95;;
17380;SDS011;8808;52.478;13.378;2023-08-17T06:13:31;3.70;;;1.90;;
17380;SDS011;8808;52.478;13.378;2023-08-17T06:16:00;4.43;;;1.73;;
17380;SDS011;8808;52.478;13.378;2023-08-17T06:18:27;2.42;;;1.73;;
17380;SDS011;8808;52.478;13.378;2023-08-17T06:20:55;2.92;;;1.98;;
17380;SDS011;8808;52.478;13.378;2023-08-17T06:23:23;5.33;;;2.10;;
17380;SDS011;8808;52.478;13.378;2023-08-17T06:25:50;6.72;;;1.98;;
17380;SDS011;8808;52.478;13.378;2023-08-17T06:28:17;6.25;;;2.40;;
17380;SDS011;8808;52.478;13.378;2023-08-17T06:30:45;3.53;;;2.00;;
17380;SDS011;8808;52.478;13.378;2023-08-17T06:33:12;5.72;;;2.08;;
17380;SDS011;8808;52.478;13.378;2023-08-17T06:35:39;6.18;;;2.20;;
17380;SDS011;8808;52.478;13.378;2023-08-17T06:38:06;4.35;;;2.00;;
17380;SDS011;8808;52.478;13.378;2023-08-17T06:40:33;4.00;;;2.20;;
17380;SDS011;8808;52.478;13.378;2023-08-17T06:43:00;6.10;;;2.25;;
17380;SDS011;8808;52.478;13.378;2023-08-17T06:45:27;5.10;;;1.88;;
17380;SDS011;8808;52.478;13.378;2023-08-17T06:47:55;4.78;;;2.10;;
17380;SDS011;8808;52.478;13.378;2023-08-17T06:50:22;3.58;;;1.77;;
17380;SDS011;8808;52.478;13.378;2023-08-17T06:52:49;4.45;;;2.08;;
17380;SDS011;8808;52.478;13.378;2023-08-17T06:55:17;7.18;;;2.30;;
17380;SDS011;8808;52.478;13.378;2023-08-17T06:57:44;4.03;;;2.10;;
17380;SDS011;8808;52.478;13.378;2023-08-17T07:00:11;4.03;;;2.17;;
17380;SDS011;8808;52.478;13.378;2023-08-17T07:02:38;3.10;;;1.98;;
17380;SDS011;8808;52.478;13.378;2023-08-17T07:05:07;3.75;;;2.20;;
17380;SDS011;8808;52.478;13.378;2023-08-17T07:07:35;6.95;;;2.40;;
17380;SDS011;8808;52.478;13.378;2023-08-17T07:10:04;4.22;;;1.92;;
17380;SDS011;8808;52.478;13.378;2023-08-17T07:12:32;4.82;;;2.30;;
17380;SDS011;8808;52.478;13.378;2023-08-17T07:14:59;5.05;;;2.30;;
17380;SDS011;8808;52.478;13.378;2023-08-17T07:17:26;4.32;;;2.13;;
17380;SDS011;8808;52.478;13.378;2023-08-17T07:19:53;8.02;;;2.35;;
17380;SDS011;8808;52.478;13.378;2023-08-17T07:22:21;5.30;;;1.90;;
17380;SDS011;8808;52.478;13.378;2023-08-17T07:24:48;3.83;;;2.33;;
17380;SDS011;8808;52.478;13.378;2023-08-17T07:27:15;4.75;;;2.10;;
17380;SDS011;8808;52.478;13.378;2023-08-17T07:29:42;4.82;;;2.45;;
17380;SDS011;8808;52.478;13.378;2023-08-17T07:32:09;4.22;;;2.42;;
17380;SDS011;8808;52.478;13.378;2023-08-17T07:34:36;9.45;;;2.53;;
17380;SDS011;8808;52.478;13.378;2023-08-17T07:37:03;5.55;;;2.10;;
17380;SDS011;8808;52.478;13.378;2023-08-17T07:39:32;4.95;;;1.90;;
17380;SDS011;8808;52.478;13.378;2023-08-17T07:41:59;3.85;;;2.30;;
17380;SDS011;8808;52.478;13.378;2023-08-17T07:44:26;2.88;;;2.08;;
17380;SDS011;8808;52.478;13.378;2023-08-17T07:46:56;6.47;;;2.47;;
17380;SDS011;8808;52.478;13.378;2023-08-17T07:49:24;5.93;;;2.70;;
17380;SDS011;8808;52.478;13.378;2023-08-17T07:51:51;2.85;;;2.17;;
17380;SDS011;8808;52.478;13.378;2023-08-17T07:54:18;5.25;;;2.30;;
17380;SDS011;8808;52.478;13.378;2023-08-17T07:56:46;2.95;;;2.20;;
17380;SDS011;8808;52.478;13.378;2023-08-17T07:59:13;4.32;;;1.90;;
17380;SDS011;8808;52.478;13.378;2023-08-17T08:01:40;3.03;;;2.30;;
17380;SDS011;8808;52.478;13.378;2023-08-17T08:04:07;3.60;;;2.17;;
17380;SDS011;8808;52.478;13.378;2023-08-17T08:06:34;4.05;;;1.92;;
17380;SDS011;8808;52.478;13.378;2023-08-17T08:09:01;6.07;;;2.40;;
17380;SDS011;8808;52.478;13.378;2023-08-17T08:11:28;3.00;;;1.88;;
17380;SDS011;8808;52.478;13.378;2023-08-17T08:13:57;3.65;;;2.25;;
17380;SDS011;8808;52.478;13.378;2023-08-17T08:16:24;4.50;;;2.35;;
17380;SDS011;8808;52.478;13.378;2023-08-17T08:18:51;3.47;;;2.13;;
17380;SDS011;8808;52.478;13.378;2023-08-17T08:21:18;7.40;;;2.17;;
17380;SDS011;8808;52.478;13.378;2023-08-17T08:23:45;3.65;;;2.03;;
17380;SDS011;8808;52.478;13.378;2023-08-17T08:26:12;3.85;;;2.25;;
17380;SDS011;8808;52.478;13.378;2023-08-17T08:28:39;6.15;;;2.30;;
17380;SDS011;8808;52.478;13.378;2023-08-17T08:31:07;6.32;;;2.22;;
17380;SDS011;8808;52.478;13.378;2023-08-17T08:33:34;4.05;;;2.50;;
17380;SDS011;8808;52.478;13.378;2023-08-17T08:36:01;6.32;;;2.60;;
17380;SDS011;8808;52.478;13.378;2023-08-17T08:38:28;6.85;;;2.42;;
17380;SDS011;8808;52.478;13.378;2023-08-17T08:40:55;6.38;;;2.97;;
17380;SDS011;8808;52.478;13.378;2023-08-17T08:43:22;4.80;;;2.70;;
17380;SDS011;8808;52.478;13.378;2023-08-17T08:45:49;7.18;;;3.20;;
17380;SDS011;8808;52.478;13.378;2023-08-17T08:48:19;8.13;;;3.13;;
17380;SDS011;8808;52.478;13.378;2023-08-17T08:50:48;5.15;;;2.90;;
17380;SDS011;8808;52.478;13.378;2023-08-17T08:53:17;6.40;;;3.60;;
17380;SDS011;8808;52.478;13.378;2023-08-17T08:55:53;4.70;;;2.80;;
17380;SDS011;8808;52.478;13.378;2023-08-17T08:58:21;5.35;;;3.10;;
17380;SDS011;8808;52.478;13.378;2023-08-17T09:00:49;4.70;;;2.65;;
17380;SDS011;8808;52.478;13.378;2023-08-17T09:03:16;9.63;;;2.63;;
17380;SDS011;8808;52.478;13.378;2023-08-17T09:05:46;8.38;;;2.70;;
17380;SDS011;8808;52.478;13.378;2023-08-17T09:08:14;5.07;;;2.70;;
17380;SDS011;8808;52.478;13.378;2023-08-17T09:10:42;5.15;;;3.13;;
17380;SDS011;8808;52.478;13.378;2023-08-17T09:13:09;5.93;;;2.97;;
17380;SDS011;8808;52.478;13.378;2023-08-17T09:15:36;8.27;;;3.17;;
17380;SDS011;8808;52.478;13.378;2023-08-17T09:18:04;7.20;;;2.72;;
17380;SDS011;8808;52.478;13.378;2023-08-17T09:20:37;5.53;;;3.40;;
17380;SDS011;8808;52.478;13.378;2023-08-17T09:23:08;4.53;;;2.88;;
17380;SDS011;8808;52.478;13.378;2023-08-17T09:25:38;6.03;;;3.63;;
17380;SDS011;8808;52.478;13.378;2023-08-17T09:28:06;6.05;;;2.95;;
17380;SDS011;8808;52.478;13.378;2023-08-17T09:30:43;5.15;;;2.78;;
17380;SDS011;8808;52.478;13.378;2023-08-17T09:33:19;4.85;;;2.78;;
17380;SDS011;8808;52.478;13.378;2023-08-17T09:35:48;5.75;;;3.03;;
17380;SDS011;8808;52.478;13.378;2023-08-17T09:38:15;6.18;;;3.10;;
17380;SDS011;8808;52.478;13.378;2023-08-17T09:40:42;8.15;;;2.92;;
17380;SDS011;8808;52.478;13.378;2023-08-17T09:43:09;6.57;;;3.03;;
17380;SDS011;8808;52.478;13.378;2023-08-17T09:45:37;5.20;;;3.20;;
17380;SDS011;8808;52.478;13.378;2023-08-17T09:48:04;5.68;;;3.45;;
17380;SDS011;8808;52.478;13.378;2023-08-17T09:50:32;6.13;;;2.95;;
17380;SDS011;8808;52.478;13.378;2023-08-17T09:53:00;6.28;;;2.70;;
17380;SDS011;8808;52.478;13.378;2023-08-17T09:55:29;4.28;;;3.00;;
17380;SDS011;8808;52.478;13.378;2023-08-17T09:57:57;4.40;;;3.10;;
17380;SDS011;8808;52.478;13.378;2023-08-17T10:00:24;7.50;;;3.00;;
17380;SDS011;8808;52.478;13.378;2023-08-17T10:02:53;6.60;;;3.20;;
17380;SDS011;8808;52.478;13.378;2023-08-17T10:05:21;4.88;;;2.80;;
17380;SDS011;8808;52.478;13.378;2023-08-17T10:07:51;4.70;;;2.67;;
17380;SDS011;8808;52.478;13.378;2023-08-17T10:10:25;6.00;;;2.83;;
17380;SDS011;8808;52.478;13.378;2023-08-17T10:12:55;4.65;;;3.03;;
17380;SDS011;8808;52.478;13.378;2023-08-17T10:15:29;7.75;;;2.83;;
17380;SDS011;8808;52.478;13.378;2023-08-17T10:17:58;4.35;;;2.90;;
17380;SDS011;8808;52.478;13.378;2023-08-17T10:20:32;8.57;;;2.88;;
17380;SDS011;8808;52.478;13.378;2023-08-17T10:23:05;3.83;;;2.67;;
17380;SDS011;8808;52.478;13.378;2023-08-17T10:25:37;4.43;;;2.72;;
17380;SDS011;8808;52.478;13.378;2023-08-17T10:28:06;7.05;;;3.00;;
17380;SDS011;8808;52.478;13.378;2023-08-17T10:30:35;4.07;;;2.78;;
17380;SDS011;8808;52.478;13.378;2023-08-17T10:33:03;4.50;;;2.80;;
17380;SDS011;8808;52.478;13.378;2023-08-17T10:35:32;4.80;;;3.10;;
17380;SDS011;8808;52.478;13.378;2023-08-17T10:38:01;5.93;;;3.20;;
17380;SDS011;8808;52.478;13.378;2023-08-17T10:40:34;5.00;;;2.80;;
17380;SDS011;8808;52.478;13.378;2023-08-17T10:43:04;5.30;;;3.45;;
17380;SDS011;8808;52.478;13.378;2023-08-17T10:45:31;5.15;;;3.40;;
17380;SDS011;8808;52.478;13.378;2023-08-17T10:48:00;6.07;;;3.20;;
17380;SDS011;8808;52.478;13.378;2023-08-17T10:50:58;6.25;;;3.33;;
17380;SDS011;8808;52.478;13.378;2023-08-17T10:53:26;4.65;;;3.08;;
17380;SDS011;8808;52.478;13.378;2023-08-17T10:55:59;4.93;;;3.30;;
17380;SDS011;8808;52.478;13.378;2023-08-17T10:58:25;6.05;;;3.75;;
17380;SDS011;8808;52.478;13.378;2023-08-17T11:00:56;7.72;;;3.58;;
17380;SDS011;8808;52.478;13.378;2023-08-17T11:03:23;8.95;;;3.42;;
17380;SDS011;8808;52.478;13.378;2023-08-17T11:05:52;8.30;;;3.58;;
17380;SDS011;8808;52.478;13.378;2023-08-17T11:08:21;6.97;;;3.10;;
17380;SDS011;8808;52.478;13.378;2023-08-17T11:10:56;4.78;;;3.22;;
17380;SDS011;8808;52.478;13.378;2023-08-17T11:13:28;4.95;;;3.13;;
17380;SDS011;8808;52.478;13.378;2023-08-17T11:15:57;7.88;;;3.05;;
17380;SDS011;8808;52.478;13.378;2023-08-17T11:18:24;5.97;;;3.35;;
17380;SDS011;8808;52.478;13.378;2023-08-17T11:20:52;7.72;;;3.50;;
17380;SDS011;8808;52.478;13.378;2023-08-17T11:23:20;7.18;;;3.80;;
17380;SDS011;8808;52.478;13.378;2023-08-17T11:25:48;6.88;;;3.05;;
17380;SDS011;8808;52.478;13.378;2023-08-17T11:28:18;6.88;;;3.45;;
17380;SDS011;8808;52.478;13.378;2023-08-17T11:30:45;5.07;;;3.13;;
17380;SDS011;8808;52.478;13.378;2023-08-17T11:33:22;3.90;;;2.90;;
17380;SDS011;8808;52.478;13.378;2023-08-17T11:35:49;9.10;;;3.03;;
17380;SDS011;8808;52.478;13.378;2023-08-17T11:38:16;4.53;;;3.50;;
17380;SDS011;8808;52.478;13.378;2023-08-17T11:40:43;6.97;;;3.30;;
17380;SDS011;8808;52.478;13.378;2023-08-17T11:43:10;6.22;;;3.25;;
17380;SDS011;8808;52.478;13.378;2023-08-17T11:45:38;8.65;;;3.67;;
17380;SDS011;8808;52.478;13.378;2023-08-17T11:48:06;5.03;;;3.10;;
17380;SDS011;8808;52.478;13.378;2023-08-17T11:50:34;6.60;;;3.50;;
17380;SDS011;8808;52.478;13.378;2023-08-17T11:53:01;8.05;;;3.55;;
17380;SDS011;8808;52.478;13.378;2023-08-17T11:55:29;6.15;;;3.05;;
17380;SDS011;8808;52.478;13.378;2023-08-17T11:57:56;5.82;;;3.28;;
17380;SDS011;8808;52.478;13.378;2023-08-17T12:00:23;5.32;;;3.38;;
17380;SDS011;8808;52.478;13.378;2023-08-17T12:02:52;6.68;;;3.63;;
17380;SDS011;8808;52.478;13.378;2023-08-17T12:05:19;5.47;;;3.85;;
17380;SDS011;8808;52.478;13.378;2023-08-17T12:07:48;3.55;;;3.10;;
17380;SDS011;8808;52.478;13.378;2023-08-17T12:10:16;5.25;;;3.50;;
17380;SDS011;8808;52.478;13.378;2023-08-17T12:12:44;4.15;;;3.10;;
17380;SDS011;8808;52.478;13.378;2023-08-17T12:15:12;8.65;;;3.65;;
17380;SDS011;8808;52.478;13.378;2023-08-17T12:17:40;5.30;;;3.15;;
17380;SDS011;8808;52.478;13.378;2023-08-17T12:20:16;8.18;;;3.83;;
17380;SDS011;8808;52.478;13.378;2023-08-17T12:22:43;4.97;;;3.65;;
17380;SDS011;8808;52.478;13.378;2023-08-17T12:25:11;7.53;;;3.97;;
17380;SDS011;8808;52.478;13.378;2023-08-17T12:27:38;5.60;;;3.60;;
17380;SDS011;8808;52.478;13.378;2023-08-17T12:30:11;5.65;;;3.40;;
17380;SDS011;8808;52.478;13.378;2023-08-17T12:32:38;7.80;;;4.25;;
17380;SDS011;8808;52.478;13.378;2023-08-17T12:35:05;7.70;;;4.07;;
17380;SDS011;8808;52.478;13.378;2023-08-17T12:37:34;5.85;;;3.55;;
17380;SDS011;8808;52.478;13.378;2023-08-17T12:40:01;4.72;;;3.03;;
17380;SDS011;8808;52.478;13.378;2023-08-17T12:42:29;6.35;;;3.70;;
17380;SDS011;8808;52.478;13.378;2023-08-17T12:44:56;6.70;;;3.78;;
17380;SDS011;8808;52.478;13.378;2023-08-17T12:47:23;5.10;;;3.78;;
17380;SDS011;8808;52.478;13.378;2023-08-17T12:49:50;4.63;;;3.63;;
17380;SDS011;8808;52.478;13.378;2023-08-17T12:52:17;6.80;;;3.80;;
17380;SDS011;8808;52.478;13.378;2023-08-17T12:54:45;5.68;;;2.85;;
17380;SDS011;8808;52.478;13.378;2023-08-17T12:57:12;4.72;;;3.53;;
17380;SDS011;8808;52.478;13.378;2023-08-17T12:59:39;6.40;;;3.70;;
17380;SDS011;8808;52.478;13.378;2023-08-17T13:02:06;5.22;;;3.35;;
17380;SDS011;8808;52.478;13.378;2023-08-17T13:04:33;5.82;;;3.75;;
17380;SDS011;8808;52.478;13.378;2023-08-17T13:07:01;7.72;;;3.75;;
17380;SDS011;8808;52.478;13.378;2023-08-17T13:09:28;5.75;;;3.90;;
17380;SDS011;8808;52.478;13.378;2023-08-17T13:11:57;8.85;;;3.88;;
17380;SDS011;8808;52.478;13.378;2023-08-17T13:14:24;5.95;;;3.10;;
17380;SDS011;8808;52.478;13.378;2023-08-17T13:16:52;7.15;;;3.70;;
17380;SDS011;8808;52.478;13.378;2023-08-17T13:19:19;6.07;;;3.47;;
17380;SDS011;8808;52.478;13.378;2023-08-17T13:21:45;5.43;;;3.80;;
17380;SDS011;8808;52.478;13.378;2023-08-17T13:24:12;5.53;;;3.72;;
17380;SDS011;8808;52.478;13.378;2023-08-17T13:26:40;7.07;;;3.80;;
17380;SDS011;8808;52.478;13.378;2023-08-17T13:29:08;6.45;;;3.53;;
17380;SDS011;8808;52.478;13.378;2023-08-17T13:31:35;4.93;;;2.90;;
17380;SDS011;8808;52.478;13.378;2023-08-17T13:34:02;4.88;;;3.80;;
17380;SDS011;8808;52.478;13.378;2023-08-17T13:36:29;4.15;;;3.30;;
17380;SDS011;8808;52.478;13.378;2023-08-17T13:38:56;6.53;;;3.97;;
17380;SDS011;8808;52.478;13.378;2023-08-17T13:41:23;5.70;;;3.85;;
17380;SDS011;8808;52.478;13.378;2023-08-17T13:43:50;5.13;;;3.85;;
17380;SDS011;8808;52.478;13.378;2023-08-17T13:46:18;5.90;;;3.90;;
17380;SDS011;8808;52.478;13.378;2023-08-17T13:48:45;4.10;;;3.10;;
17380;SDS011;8808;52.478;13.378;2023-08-17T13:51:12;6.60;;;3.90;;
17380;SDS011;8808;52.478;13.378;2023-08-17T13:53:39;5.28;;;3.13;;
17380;SDS011;8808;52.478;13.378;2023-08-17T13:56:06;5.53;;;3.88;;
17380;SDS011;8808;52.478;13.378;2023-08-17T13:58:34;6.45;;;4.18;;
17380;SDS011;8808;52.478;13.378;2023-08-17T14:01:01;4.15;;;3.03;;
17380;SDS011;8808;52.478;13.378;2023-08-17T14:03:29;6.00;;;3.92;;
17380;SDS011;8808;52.478;13.378;2023-08-17T14:05:56;11.15;;;4.88;;
17380;SDS011;8808;52.478;13.378;2023-08-17T14:08:24;7.10;;;3.65;;
17380;SDS011;8808;52.478;13.378;2023-08-17T14:10:50;6.57;;;4.30;;
17380;SDS011;8808;52.478;13.378;2023-08-17T14:13:17;6.93;;;3.90;;
17380;SDS011;8808;52.478;13.378;2023-08-17T14:15:44;5.68;;;4.10;;
17380;SDS011;8808;52.478;13.378;2023-08-17T14:18:11;6.35;;;3.83;;
17380;SDS011;8808;52.478;13.378;2023-08-17T14:20:39;5.85;;;3.47;;
17380;SDS011;8808;52.478;13.378;2023-08-17T14:23:06;7.03;;;4.10;;
17380;SDS011;8808;52.478;13.378;2023-08-17T14:25:33;5.43;;;3.55;;
17380;SDS011;8808;52.478;13.378;2023-08-17T14:28:03;6.70;;;3.35;;
17380;SDS011;8808;52.478;13.378;2023-08-17T14:30:30;4.97;;;3.17;;
17380;SDS011;8808;52.478;13.378;2023-08-17T14:32:57;6.40;;;3.53;;
17380;SDS011;8808;52.478;13.378;2023-08-17T14:35:24;5.63;;;2.85;;
17380;SDS011;8808;52.478;13.378;2023-08-17T14:37:53;5.30;;;3.20;;
17380;SDS011;8808;52.478;13.378;2023-08-17T14:40:23;6.75;;;3.20;;
17380;SDS011;8808;52.478;13.378;2023-08-17T14:42:50;4.72;;;3.25;;
17380;SDS011;8808;52.478;13.378;2023-08-17T14:45:17;5.20;;;3.58;;
17380;SDS011;8808;52.478;13.378;2023-08-17T14:47:43;5.38;;;3.47;;
17380;SDS011;8808;52.478;13.378;2023-08-17T14:50:11;5.38;;;3.35;;
17380;SDS011;8808;52.478;13.378;2023-08-17T14:52:39;5.15;;;3.70;;
17380;SDS011;8808;52.478;13.378;2023-08-17T14:55:07;5.85;;;3.33;;